Time;durP1;ratioP1;P1;durP2;ratioP2;P2;SDS_P1;SDS_P2;PMS_P1;PMS_P2;Temp;Humidity;BMP_temperature;BMP_pressure;BME280_temperature;BME280_humidity;BME280_pressure;Samples;Min_cycle;Max_cycle;Signal;HPM_P1;HPM_P2
2021/12/30 00:00:25;;;;;;;30.73;7.70;;;9.60;99.90;;;;;;5070340;28;20044;-94
2021/12/30 00:02:51;;;;;;;26.73;7.22;;;9.60;99.90;;;;;;5070720;28;20052;-94
2021/12/30 00:05:17;;;;;;;37.65;7.78;;;9.50;99.90;;;;;;5053495;28;20530;-94
2021/12/30 00:07:43;;;;;;;31.75;7.63;;;9.50;99.90;;;;;;5070203;28;20059;-94
2021/12/30 00:10:10;;;;;;;33.85;7.97;;;9.50;99.90;;;;;;5071242;28;20056;-93
2021/12/30 00:12:35;;;;;;;31.63;6.57;;;9.40;99.90;;;;;;5071450;28;20404;-94
2021/12/30 00:15:03;;;;;;;37.13;8.63;;;9.40;99.90;;;;;;5055138;28;20059;-94
2021/12/30 00:17:28;;;;;;;33.65;7.90;;;9.40;99.90;;;;;;5070639;28;20510;-94
2021/12/30 00:19:54;;;;;;;30.45;6.63;;;9.40;99.90;;;;;;5070811;28;20039;-93
2021/12/30 00:22:19;;;;;;;32.75;7.65;;;9.30;99.90;;;;;;5071016;28;20051;-93
2021/12/30 00:24:45;;;;;;;31.58;7.15;;;9.20;99.90;;;;;;5054609;28;20048;-93
2021/12/30 00:27:10;;;;;;;36.10;7.72;;;9.20;99.90;;;;;;5056209;28;20193;-93
2021/12/30 00:29:36;;;;;;;31.73;7.68;;;9.20;99.90;;;;;;5053329;28;20063;-92
2021/12/30 00:32:03;;;;;;;32.70;7.88;;;9.20;99.90;;;;;;5072090;28;20097;-95
2021/12/30 00:34:29;;;;;;;33.42;7.40;;;9.20;99.90;;;;;;5070169;28;20055;-94
2021/12/30 00:36:55;;;;;;;32.13;7.72;;;9.20;99.90;;;;;;5071583;28;20052;-94
2021/12/30 00:39:21;;;;;;;31.35;6.93;;;9.20;99.90;;;;;;5057968;28;20460;-93
2021/12/30 00:41:46;;;;;;;28.67;6.65;;;9.20;99.90;;;;;;5073811;28;20047;-95
2021/12/30 00:44:12;;;;;;;30.15;7.45;;;9.20;99.90;;;;;;5057967;28;20391;-94
2021/12/30 00:46:38;;;;;;;35.40;7.22;;;9.20;99.90;;;;;;5073670;28;20074;-94
2021/12/30 00:49:04;;;;;;;30.20;6.85;;;9.20;99.90;;;;;;5057072;28;20056;-92
2021/12/30 00:51:29;;;;;;;31.67;7.05;;;9.20;99.90;;;;;;5057646;28;20485;-93
2021/12/30 00:53:55;;;;;;;26.75;7.05;;;9.20;99.90;;;;;;5076711;28;20048;-94
2021/12/30 00:56:21;;;;;;;30.92;6.93;;;9.20;99.90;;;;;;5060079;28;20040;-94
2021/12/30 00:58:48;;;;;;;35.30;7.75;;;9.30;99.90;;;;;;5074360;28;20052;-94
2021/12/30 01:01:13;;;;;;;28.90;7.10;;;9.10;99.90;;;;;;5077677;28;20504;-95
2021/12/30 01:03:39;;;;;;;33.03;6.97;;;9.10;99.90;;;;;;5055675;28;20075;-94
2021/12/30 01:06:05;;;;;;;34.85;6.72;;;9.10;99.90;;;;;;5057425;28;20489;-95
2021/12/30 01:08:31;;;;;;;30.83;7.13;;;9.10;99.90;;;;;;5073480;28;20071;-94
2021/12/30 01:10:57;;;;;;;30.48;6.88;;;9.10;99.90;;;;;;5073832;28;20056;-94
2021/12/30 01:13:26;;;;;;;27.38;7.22;;;9.00;99.90;;;;;;5056191;28;20050;-95
2021/12/30 01:16:02;;;;;;;38.05;8.55;;;9.00;99.90;;;;;;5057205;28;20044;-94
2021/12/30 01:18:42;;;;;;;31.45;7.10;;;9.00;99.90;;;;;;5072609;28;20072;-94
2021/12/30 01:21:11;;;;;;;26.73;6.65;;;8.90;99.90;;;;;;5074093;28;20044;-94
2021/12/30 01:23:38;;;;;;;34.72;7.55;;;8.90;99.90;;;;;;5072823;28;20048;-94
2021/12/30 01:26:04;;;;;;;30.95;7.00;;;8.90;99.90;;;;;;5073499;28;20036;-94
2021/12/30 01:28:30;;;;;;;31.65;6.93;;;8.90;99.90;;;;;;5072578;28;20122;-94
2021/12/30 01:30:56;;;;;;;31.60;7.10;;;8.90;99.90;;;;;;5073454;28;20123;-94
2021/12/30 01:33:22;;;;;;;31.25;6.53;;;8.90;99.90;;;;;;5072379;28;20047;-94
2021/12/30 01:35:48;;;;;;;26.30;7.30;;;8.90;99.90;;;;;;5073275;28;20047;-93
2021/12/30 01:38:16;;;;;;;30.65;7.40;;;8.80;99.90;;;;;;5073542;28;20399;-94
2021/12/30 01:40:44;;;;;;;34.03;6.63;;;8.90;99.90;;;;;;5068649;28;20039;-95
2021/12/30 01:43:11;;;;;;;30.98;6.63;;;8.90;99.90;;;;;;5056778;28;20441;-94
2021/12/30 01:45:39;;;;;;;30.38;6.93;;;8.80;99.90;;;;;;5055042;28;20036;-94
2021/12/30 01:48:05;;;;;;;29.42;6.85;;;8.90;99.90;;;;;;5072313;28;20568;-94
2021/12/30 01:50:32;;;;;;;34.08;6.63;;;8.90;99.90;;;;;;5054515;28;20051;-94
2021/12/30 01:52:58;;;;;;;25.98;6.55;;;8.80;99.90;;;;;;5072018;28;20052;-95
2021/12/30 01:55:24;;;;;;;31.42;7.93;;;8.80;99.90;;;;;;5070372;28;20047;-94
2021/12/30 01:57:50;;;;;;;30.17;6.55;;;8.80;99.90;;;;;;5053410;28;20040;-92
2021/12/30 02:00:22;;;;;;;43.70;8.93;;;8.80;99.90;;;;;;5070137;28;20036;-94
2021/12/30 02:02:49;;;;;;;33.30;7.53;;;8.80;99.90;;;;;;5071040;28;20127;-95
2021/12/30 02:05:15;;;;;;;28.83;6.50;;;8.80;99.90;;;;;;5073458;28;20044;-92
2021/12/30 02:07:41;;;;;;;31.23;7.07;;;8.80;99.90;;;;;;5052868;28;20052;-94
2021/12/30 02:10:09;;;;;;;32.30;7.93;;;8.80;99.90;;;;;;5072509;28;20040;-93
2021/12/30 02:12:37;;;;;;;36.75;8.40;;;8.80;99.90;;;;;;5075747;28;20089;-94
2021/12/30 02:15:07;;;;;;;39.65;10.57;;;8.80;99.90;;;;;;5070088;28;20392;-93
2021/12/30 02:17:32;;;;;;;39.90;10.57;;;8.90;99.90;;;;;;5053089;28;20040;-94
2021/12/30 02:20:03;;;;;;;40.30;11.98;;;8.90;99.90;;;;;;5055331;28;20516;-94
2021/12/30 02:22:29;;;;;;;44.15;13.90;;;9.00;99.90;;;;;;5053509;28;20039;-92
2021/12/30 02:24:56;;;;;;;41.03;13.80;;;9.10;99.90;;;;;;5071101;28;20392;-93
2021/12/30 02:27:22;;;;;;;42.80;16.25;;;9.10;99.90;;;;;;5055174;28;20040;-94
2021/12/30 02:29:47;;;;;;;45.17;14.88;;;9.20;99.90;;;;;;5072043;28;20433;-94
2021/12/30 02:32:13;;;;;;;46.17;15.60;;;9.30;99.90;;;;;;5058402;28;20040;-94
2021/12/30 02:34:38;;;;;;;46.25;15.70;;;9.40;99.90;;;;;;5056323;28;20455;-94
2021/12/30 02:37:05;;;;;;;45.92;16.58;;;9.40;99.90;;;;;;5076470;28;20127;-93
2021/12/30 02:39:30;;;;;;;43.50;16.27;;;9.50;99.90;;;;;;5077681;28;20060;-93
2021/12/30 02:41:56;;;;;;;51.42;16.88;;;9.50;99.90;;;;;;5088570;28;20140;-93
2021/12/30 02:44:23;;;;;;;46.97;17.08;;;9.50;99.90;;;;;;5056755;28;20039;-94
2021/12/30 02:46:53;;;;;;;48.50;18.45;;;9.60;99.90;;;;;;5056202;28;20040;-94
2021/12/30 02:49:20;;;;;;;48.90;17.65;;;9.60;99.90;;;;;;5074115;28;20089;-95
2021/12/30 02:51:46;;;;;;;47.70;17.17;;;9.60;99.90;;;;;;5074540;28;20089;-93
2021/12/30 02:54:11;;;;;;;41.65;17.50;;;9.70;99.90;;;;;;5072515;28;20405;-91
2021/12/30 02:56:37;;;;;;;43.22;17.73;;;9.70;99.90;;;;;;5071023;28;20400;-96
2021/12/30 02:59:04;;;;;;;50.40;17.45;;;9.80;99.90;;;;;;5073455;28;20391;-94
2021/12/30 03:01:32;;;;;;;43.63;17.80;;;9.80;99.90;;;;;;5071584;28;20158;-94
2021/12/30 03:04:01;;;;;;;48.72;18.45;;;9.80;99.90;;;;;;5073594;28;20059;-94
2021/12/30 03:06:27;;;;;;;43.90;18.20;;;9.90;99.90;;;;;;5085325;28;20056;-94
2021/12/30 03:08:53;;;;;;;48.92;20.13;;;9.90;99.90;;;;;;5072402;28;20047;-94
2021/12/30 03:11:21;;;;;;;44.78;18.85;;;9.90;99.90;;;;;;5071888;28;20407;-94
2021/12/30 03:13:47;;;;;;;47.88;18.98;;;10.00;99.90;;;;;;5069842;28;20047;-95
2021/12/30 03:16:16;;;;;;;44.28;18.63;;;10.00;99.90;;;;;;5074084;28;20047;-94
2021/12/30 03:18:44;;;;;;;46.95;19.52;;;10.00;99.90;;;;;;5070744;28;20257;-94
2021/12/30 03:21:11;;;;;;;50.17;19.67;;;10.00;99.90;;;;;;5072886;28;20059;-94
2021/12/30 03:23:37;;;;;;;48.88;19.38;;;10.10;99.90;;;;;;5070321;28;20050;-94
2021/12/30 03:26:05;;;;;;;49.60;20.23;;;10.10;99.90;;;;;;5071074;28;20040;-94
2021/12/30 03:28:31;;;;;;;47.10;20.08;;;10.10;99.90;;;;;;5088038;28;20044;-94
2021/12/30 03:30:58;;;;;;;43.88;18.60;;;10.10;99.90;;;;;;5054614;28;20051;-94
2021/12/30 03:33:26;;;;;;;43.78;19.02;;;10.10;99.90;;;;;;5070290;28;20044;-91
2021/12/30 03:35:51;;;;;;;50.20;19.67;;;10.20;99.90;;;;;;5066885;28;20048;-94
2021/12/30 03:38:17;;;;;;;46.28;18.75;;;10.10;99.90;;;;;;5055225;28;20496;-94
2021/12/30 03:40:43;;;;;;;44.30;18.67;;;10.10;99.90;;;;;;5070494;28;20119;-94
2021/12/30 03:43:08;;;;;;;50.97;20.52;;;10.10;99.90;;;;;;5070629;28;20603;-94
2021/12/30 03:45:34;;;;;;;49.35;19.95;;;10.20;99.90;;;;;;5071968;28;20044;-95
2021/12/30 03:48:00;;;;;;;48.58;20.27;;;10.20;99.90;;;;;;5071200;28;20044;-94
2021/12/30 03:50:29;;;;;;;43.13;19.35;;;10.20;99.90;;;;;;5074899;28;20051;-94
2021/12/30 03:53:01;;;;;;;49.70;19.67;;;10.20;99.90;;;;;;5070794;28;20044;-94
2021/12/30 03:55:29;;;;;;;45.17;19.48;;;10.30;99.90;;;;;;5072675;28;20123;-94
2021/12/30 03:57:55;;;;;;;46.55;19.80;;;10.30;99.90;;;;;;5072231;28;20054;-93
2021/12/30 04:00:22;;;;;;;52.83;19.73;;;10.40;99.90;;;;;;5069586;28;20127;-94
2021/12/30 04:02:48;;;;;;;40.42;18.25;;;10.30;99.90;;;;;;5071929;28;20047;-93
2021/12/30 04:05:13;;;;;;;46.45;18.35;;;10.40;99.90;;;;;;5053765;28;20059;-93
2021/12/30 04:07:39;;;;;;;45.85;18.55;;;10.30;99.90;;;;;;5069903;28;20080;-93
2021/12/30 04:10:08;;;;;;;47.35;17.48;;;10.30;99.90;;;;;;5053450;28;20055;-93
2021/12/30 04:12:34;;;;;;;47.25;17.20;;;10.30;99.90;;;;;;5074893;28;20044;-94
2021/12/30 04:15:02;;;;;;;42.45;17.63;;;10.30;99.90;;;;;;5073239;28;20550;-93
2021/12/30 04:17:28;;;;;;;44.67;17.73;;;10.20;99.90;;;;;;5073954;28;20081;-93
2021/12/30 04:19:54;;;;;;;49.88;18.60;;;10.20;99.90;;;;;;5071862;28;20048;-94
2021/12/30 04:22:20;;;;;;;45.88;17.05;;;10.20;99.90;;;;;;5056981;28;20526;-93
2021/12/30 04:24:47;;;;;;;44.55;17.30;;;10.20;99.90;;;;;;5056163;28;20416;-93
2021/12/30 04:27:12;;;;;;;47.47;18.98;;;10.30;99.90;;;;;;5053039;28;20476;-94
2021/12/30 04:29:38;;;;;;;46.88;18.13;;;10.30;99.90;;;;;;5088508;28;20044;-94
2021/12/30 04:32:04;;;;;;;47.72;17.08;;;10.40;99.90;;;;;;5073425;28;20127;-94
2021/12/30 04:34:29;;;;;;;45.70;17.65;;;10.40;99.90;;;;;;5059104;28;20094;-93
2021/12/30 04:36:58;;;;;;;46.95;18.45;;;10.40;99.90;;;;;;5074203;28;20119;-93
2021/12/30 04:39:25;;;;;;;46.78;19.63;;;10.50;99.90;;;;;;5073658;28;20039;-94
2021/12/30 04:41:51;;;;;;;42.53;18.52;;;10.60;99.90;;;;;;5072154;28;20056;-94
2021/12/30 04:44:17;;;;;;;44.10;18.40;;;10.60;99.90;;;;;;5075341;28;20096;-93
2021/12/30 04:46:42;;;;;;;45.30;18.67;;;10.70;99.90;;;;;;5073928;28;20036;-95
2021/12/30 04:49:08;;;;;;;46.00;18.88;;;10.80;99.90;;;;;;5059755;28;20050;-95
2021/12/30 04:51:33;;;;;;;49.58;20.52;;;10.80;99.90;;;;;;5057836;28;20070;-96
2021/12/30 04:53:59;;;;;;;51.85;21.58;;;10.90;99.90;;;;;;5075187;28;20097;-96
2021/12/30 04:56:25;;;;;;;47.15;19.85;;;10.90;99.90;;;;;;5073746;28;20047;-95
2021/12/30 04:58:50;;;;;;;44.83;20.42;;;10.90;99.90;;;;;;5057863;28;20048;-95
2021/12/30 05:01:16;;;;;;;47.90;21.02;;;11.00;99.90;;;;;;5075898;28;20067;-94
2021/12/30 05:03:41;;;;;;;40.72;20.27;;;11.00;99.90;;;;;;5073983;28;20174;-94
2021/12/30 05:06:07;;;;;;;42.67;21.48;;;11.00;99.90;;;;;;5074334;28;20052;-94
2021/12/30 05:08:33;;;;;;;41.42;21.23;;;11.00;99.90;;;;;;5056095;28;20043;-95
2021/12/30 05:10:59;;;;;;;42.88;21.55;;;11.00;99.90;;;;;;5071414;28;20036;-95
2021/12/30 05:13:24;;;;;;;39.45;19.90;;;11.00;99.90;;;;;;5073350;28;20924;-94
2021/12/30 05:15:50;;;;;;;40.72;20.35;;;11.10;99.90;;;;;;5076591;28;20123;-95
2021/12/30 05:18:16;;;;;;;41.30;21.02;;;11.10;99.90;;;;;;5057360;28;20123;-95
2021/12/30 05:20:42;;;;;;;41.35;20.02;;;11.10;99.90;;;;;;5056528;28;20055;-94
2021/12/30 05:23:09;;;;;;;41.60;20.48;;;11.10;99.90;;;;;;5057167;28;20064;-95
2021/12/30 05:25:35;;;;;;;46.65;21.77;;;11.10;99.90;;;;;;5072033;28;20049;-94
2021/12/30 05:28:00;;;;;;;43.60;20.35;;;11.10;99.90;;;;;;5057306;28;20518;-95
2021/12/30 05:30:26;;;;;;;39.25;19.65;;;11.20;99.90;;;;;;5054958;28;20068;-94
2021/12/30 05:32:54;;;;;;;39.22;20.33;;;11.20;99.90;;;;;;5076089;28;20040;-94
2021/12/30 05:35:20;;;;;;;44.50;20.75;;;11.20;99.90;;;;;;5055501;28;20048;-94
2021/12/30 05:37:47;;;;;;;45.22;20.05;;;11.20;99.90;;;;;;5086075;28;20172;-93
2021/12/30 05:40:18;;;;;;;39.70;20.00;;;11.20;99.90;;;;;;5054972;28;20044;-93
2021/12/30 05:42:45;;;;;;;46.22;21.17;;;11.30;99.90;;;;;;5071590;28;20116;-93
2021/12/30 05:45:14;;;;;;;37.22;20.45;;;11.30;99.90;;;;;;5072438;28;20580;-92
2021/12/30 05:47:41;;;;;;;47.80;21.85;;;11.30;99.90;;;;;;5071350;28;20144;-93
2021/12/30 05:50:09;;;;;;;47.35;22.45;;;11.30;99.90;;;;;;5072050;28;20039;-94
2021/12/30 05:52:36;;;;;;;49.78;22.42;;;11.30;99.90;;;;;;5073697;28;20048;-92
2021/12/30 05:55:03;;;;;;;50.75;23.30;;;11.30;99.90;;;;;;5072739;28;20452;-93
2021/12/30 05:57:29;;;;;;;52.53;23.85;;;11.30;99.90;;;;;;5075944;28;20511;-91
2021/12/30 05:59:55;;;;;;;56.53;24.27;;;11.40;99.90;;;;;;5090096;28;20036;-91
2021/12/30 06:02:21;;;;;;;57.03;26.77;;;11.40;99.90;;;;;;5087053;28;20389;-93
2021/12/30 06:04:47;;;;;;;60.85;25.92;;;11.50;99.90;;;;;;5054270;28;20093;-93
2021/12/30 06:07:12;;;;;;;62.08;26.08;;;11.50;99.90;;;;;;5070529;28;20131;-93
2021/12/30 06:09:38;;;;;;;61.45;26.45;;;11.50;99.90;;;;;;5052480;28;20844;-93
2021/12/30 06:12:04;;;;;;;58.92;26.33;;;11.50;99.90;;;;;;5070954;28;20047;-93
2021/12/30 06:14:30;;;;;;;69.65;26.55;;;11.60;99.90;;;;;;5068954;28;20849;-92
2021/12/30 06:16:55;;;;;;;65.13;26.92;;;11.60;99.90;;;;;;5069974;28;20043;-92
2021/12/30 06:19:21;;;;;;;77.63;27.48;;;11.60;99.90;;;;;;5069494;28;20177;-92
2021/12/30 06:21:47;;;;;;;66.97;25.80;;;11.70;99.90;;;;;;5068667;28;20040;-93
2021/12/30 06:24:12;;;;;;;60.60;25.85;;;11.70;99.90;;;;;;5072248;28;20492;-92
2021/12/30 06:26:38;;;;;;;56.35;24.92;;;11.80;99.90;;;;;;5074244;28;20059;-93
2021/12/30 06:29:04;;;;;;;56.17;24.70;;;11.80;99.90;;;;;;5069884;28;20040;-94
2021/12/30 06:31:30;;;;;;;57.58;23.90;;;11.80;99.90;;;;;;5069122;28;20120;-93
2021/12/30 06:33:56;;;;;;;65.65;24.92;;;11.80;99.90;;;;;;5054114;28;20502;-91
2021/12/30 06:36:21;;;;;;;57.45;24.13;;;11.90;99.90;;;;;;5055279;28;20040;-91
2021/12/30 06:38:48;;;;;;;55.58;23.30;;;11.90;99.90;;;;;;5053641;28;20047;-90
2021/12/30 06:41:14;;;;;;;54.67;23.73;;;11.90;99.90;;;;;;5069961;28;20036;-89
2021/12/30 06:43:41;;;;;;;63.92;24.20;;;11.90;99.90;;;;;;5052352;28;20059;-91
2021/12/30 06:46:09;;;;;;;58.90;23.65;;;12.00;99.90;;;;;;5073632;28;20075;-95
2021/12/30 06:48:34;;;;;;;55.90;23.38;;;12.00;99.90;;;;;;5052693;28;20083;-92
2021/12/30 06:51:00;;;;;;;52.30;23.70;;;12.00;99.90;;;;;;5052502;28;20257;-94
2021/12/30 06:53:26;;;;;;;55.40;22.77;;;12.00;99.90;;;;;;5072289;28;20059;-89
2021/12/30 06:55:53;;;;;;;48.75;21.52;;;12.00;99.90;;;;;;5069825;28;20792;-89
2021/12/30 06:58:20;;;;;;;48.83;21.60;;;12.00;99.90;;;;;;5072692;28;20090;-89
2021/12/30 07:00:47;;;;;;;47.90;20.42;;;12.00;99.90;;;;;;5081895;28;20036;-89
2021/12/30 07:03:13;;;;;;;48.10;19.73;;;12.10;99.90;;;;;;5070202;28;20047;-91
2021/12/30 07:05:38;;;;;;;40.45;18.10;;;12.10;99.90;;;;;;5055158;28;20508;-89
2021/12/30 07:08:04;;;;;;;37.00;17.55;;;12.10;99.90;;;;;;5053745;28;20094;-90
2021/12/30 07:10:30;;;;;;;42.10;17.45;;;12.10;99.90;;;;;;5068951;28;20131;-89
2021/12/30 07:12:55;;;;;;;33.97;15.88;;;12.00;99.90;;;;;;5069617;28;20492;-89
2021/12/30 07:15:21;;;;;;;33.03;15.48;;;12.10;99.90;;;;;;5049743;28;20050;-90
2021/12/30 07:17:48;;;;;;;31.45;14.73;;;12.10;99.90;;;;;;5069196;28;20048;-89
2021/12/30 07:20:14;;;;;;;31.77;13.57;;;12.10;99.90;;;;;;5069582;28;20051;-87
2021/12/30 07:22:40;;;;;;;32.05;13.82;;;12.10;99.90;;;;;;5068863;28;20044;-88
2021/12/30 07:25:08;;;;;;;20.58;10.10;;;12.10;99.90;;;;;;5066954;28;20036;-88
2021/12/30 07:27:34;;;;;;;18.15;9.13;;;12.10;99.90;;;;;;5067079;28;20073;-89
2021/12/30 07:29:59;;;;;;;17.45;8.15;;;12.10;99.90;;;;;;5067955;28;20705;-88
2021/12/30 07:32:28;;;;;;;17.25;8.05;;;12.10;99.90;;;;;;5049500;28;20059;-88
2021/12/30 07:34:54;;;;;;;15.90;8.20;;;12.10;99.90;;;;;;5051048;28;20400;-86
2021/12/30 07:37:20;;;;;;;15.60;8.43;;;12.10;99.90;;;;;;5051547;28;20258;-87
2021/12/30 07:39:47;;;;;;;17.10;8.68;;;12.10;99.90;;;;;;5069309;28;20123;-88
2021/12/30 07:42:13;;;;;;;15.98;7.93;;;12.10;99.90;;;;;;5067401;28;20071;-87
2021/12/30 07:44:40;;;;;;;14.55;7.35;;;12.10;99.90;;;;;;5068918;28;20518;-87
2021/12/30 07:47:08;;;;;;;13.60;6.72;;;12.10;99.90;;;;;;5050740;28;20160;-88
2021/12/30 07:49:36;;;;;;;12.98;7.15;;;12.10;99.90;;;;;;5055309;28;20048;-89
2021/12/30 07:52:06;;;;;;;13.10;6.93;;;12.10;99.90;;;;;;5071995;28;20058;-87
2021/12/30 07:54:32;;;;;;;12.75;7.35;;;12.10;99.90;;;;;;5071710;28;20036;-86
2021/12/30 07:56:58;;;;;;;12.15;7.40;;;12.10;99.90;;;;;;5073802;28;20035;-87
2021/12/30 07:59:23;;;;;;;14.77;7.47;;;12.10;99.90;;;;;;5072785;28;20048;-87
2021/12/30 08:01:49;;;;;;;13.95;7.35;;;12.10;99.90;;;;;;5071007;28;20063;-86
2021/12/30 08:04:15;;;;;;;14.45;8.20;;;12.10;99.90;;;;;;5055190;28;20064;-86
2021/12/30 08:06:42;;;;;;;13.55;7.93;;;12.10;99.90;;;;;;5054412;28;20409;-87
2021/12/30 08:09:07;;;;;;;12.85;7.50;;;12.20;99.90;;;;;;5088407;28;20040;-88
2021/12/30 08:11:34;;;;;;;12.20;7.32;;;12.20;99.90;;;;;;5057614;28;20385;-86
2021/12/30 08:13:59;;;;;;;12.02;7.35;;;12.20;99.90;;;;;;5069341;28;20048;-87
2021/12/30 08:16:26;;;;;;;11.40;7.10;;;12.20;99.90;;;;;;5069162;28;20494;-85
2021/12/30 08:18:52;;;;;;;13.85;6.82;;;12.20;99.90;;;;;;5065243;28;20082;-87
2021/12/30 08:21:19;;;;;;;11.10;6.43;;;12.20;99.90;;;;;;5070674;28;20079;-87
2021/12/30 08:23:46;;;;;;;11.95;6.20;;;12.30;99.90;;;;;;5069909;28;20765;-88
2021/12/30 08:26:11;;;;;;;11.25;6.60;;;12.30;99.90;;;;;;5074044;28;20040;-87
2021/12/30 08:28:37;;;;;;;11.52;6.40;;;12.30;99.90;;;;;;5069853;28;20055;-88
2021/12/30 08:31:03;;;;;;;10.45;5.88;;;12.30;99.90;;;;;;5054493;28;20601;-87
2021/12/30 08:33:29;;;;;;;11.18;6.47;;;12.40;99.90;;;;;;5069031;28;20504;-86
2021/12/30 08:35:54;;;;;;;12.60;6.90;;;12.40;99.90;;;;;;5053047;28;20040;-86
2021/12/30 08:38:20;;;;;;;11.90;7.00;;;12.40;99.90;;;;;;5051884;28;20043;-87
2021/12/30 08:40:47;;;;;;;14.32;8.15;;;12.40;99.90;;;;;;5053877;28;20028;-88
2021/12/30 08:43:13;;;;;;;15.20;9.23;;;12.40;99.90;;;;;;5054065;28;20044;-89
2021/12/30 08:45:39;;;;;;;15.60;9.88;;;12.50;99.90;;;;;;5070495;28;20040;-85
2021/12/30 08:48:05;;;;;;;17.33;10.05;;;12.60;99.90;;;;;;5068161;28;20040;-87
2021/12/30 08:50:31;;;;;;;17.77;10.73;;;12.60;99.90;;;;;;5073326;28;20040;-88
2021/12/30 08:52:57;;;;;;;15.07;10.38;;;12.60;99.90;;;;;;5072578;28;20040;-87
2021/12/30 08:55:22;;;;;;;17.83;11.55;;;12.60;99.90;;;;;;5061780;28;20047;-88
2021/12/30 08:57:49;;;;;;;17.98;10.48;;;12.60;99.90;;;;;;5073787;28;20401;-88
2021/12/30 09:00:19;;;;;;;17.77;11.27;;;12.70;99.90;;;;;;5070717;28;20036;-89
2021/12/30 09:02:44;;;;;;;16.48;10.82;;;12.70;99.90;;;;;;5053807;28;20110;-91
2021/12/30 09:05:11;;;;;;;16.67;9.70;;;12.70;99.90;;;;;;5070722;28;20538;-89
2021/12/30 09:07:36;;;;;;;17.65;10.65;;;12.80;99.90;;;;;;5052788;28;20419;-89
2021/12/30 09:10:04;;;;;;;14.02;8.50;;;12.80;99.90;;;;;;5054969;28;20044;-90
2021/12/30 09:12:30;;;;;;;14.95;9.00;;;12.80;99.90;;;;;;5071353;28;20044;-88
2021/12/30 09:14:55;;;;;;;13.25;7.75;;;12.90;99.90;;;;;;5071766;28;20501;-91
2021/12/30 09:17:21;;;;;;;15.60;8.75;;;12.90;99.90;;;;;;5070982;28;20457;-93
2021/12/30 09:19:47;;;;;;;13.93;8.40;;;12.90;99.90;;;;;;5074470;28;20051;-88
2021/12/30 09:22:12;;;;;;;16.33;8.57;;;12.90;99.90;;;;;;5059692;28;20047;-91
2021/12/30 09:24:38;;;;;;;13.82;9.00;;;12.90;99.90;;;;;;5087123;28;20709;-88
2021/12/30 09:27:03;;;;;;;13.05;8.38;;;12.90;99.90;;;;;;5068570;28;20047;-90
2021/12/30 09:29:29;;;;;;;16.42;9.00;;;12.90;99.90;;;;;;5063906;28;20036;-89
2021/12/30 09:31:55;;;;;;;15.23;10.18;;;12.90;99.90;;;;;;5077035;28;20036;-88
2021/12/30 09:34:20;;;;;;;14.73;11.13;;;12.90;99.90;;;;;;5070726;28;20089;-90
2021/12/30 09:36:47;;;;;;;16.38;11.50;;;12.90;99.90;;;;;;5073219;28;20106;-89
2021/12/30 09:39:14;;;;;;;16.90;11.48;;;12.90;99.90;;;;;;5069180;28;20054;-89
2021/12/30 09:41:43;;;;;;;16.45;12.18;;;12.90;99.90;;;;;;5051001;28;20040;-89
2021/12/30 09:44:11;;;;;;;16.65;11.77;;;12.90;99.90;;;;;;5066440;28;20047;-93
2021/12/30 09:46:37;;;;;;;17.58;12.32;;;12.90;99.90;;;;;;5069650;28;20040;-90
2021/12/30 09:49:05;;;;;;;15.68;11.40;;;13.00;99.90;;;;;;5069615;28;20127;-93
2021/12/30 09:51:30;;;;;;;18.25;12.23;;;12.90;99.90;;;;;;5067445;28;20040;-90
2021/12/30 09:53:56;;;;;;;19.42;12.48;;;13.00;99.90;;;;;;5053832;28;20392;-95
2021/12/30 09:56:22;;;;;;;18.17;12.70;;;13.00;99.90;;;;;;5053412;28;20056;-92
2021/12/30 09:58:48;;;;;;;17.88;13.02;;;13.00;99.90;;;;;;5069406;28;20046;-93
2021/12/30 10:01:14;;;;;;;19.00;12.73;;;13.00;99.90;;;;;;5053226;28;20127;-91
2021/12/30 10:03:40;;;;;;;18.05;11.73;;;12.90;99.90;;;;;;5069451;28;20068;-93
2021/12/30 10:06:10;;;;;;;18.10;12.20;;;13.00;99.90;;;;;;5071327;28;20059;-89
2021/12/30 10:08:41;;;;;;;16.10;11.27;;;13.00;99.90;;;;;;5068727;28;20065;-93
2021/12/30 10:11:13;;;;;;;15.70;11.27;;;13.00;99.90;;;;;;5068695;28;20055;-92
2021/12/30 10:13:48;;;;;;;14.93;10.07;;;13.00;99.90;;;;;;5051360;28;20056;-91
2021/12/30 10:16:15;;;;;;;16.08;11.25;;;13.00;99.90;;;;;;5051183;28;20373;-90
2021/12/30 10:18:55;;;;;;;17.40;11.38;;;13.00;99.90;;;;;;5067815;28;20309;-91
2021/12/30 10:21:32;;;;;;;15.98;10.77;;;13.00;99.90;;;;;;5073128;28;20047;-90
2021/12/30 10:24:00;;;;;;;18.98;10.70;;;13.00;99.90;;;;;;5052377;28;20529;-91
2021/12/30 10:26:26;;;;;;;15.70;10.20;;;13.00;99.90;;;;;;5067055;28;20043;-89
2021/12/30 10:28:59;;;;;;;16.15;9.52;;;12.90;99.90;;;;;;5071318;28;20040;-95
2021/12/30 10:31:28;;;;;;;16.50;9.52;;;12.90;99.90;;;;;;5065780;28;20075;-90
2021/12/30 10:34:01;;;;;;;19.20;9.90;;;13.00;99.90;;;;;;5069927;28;20044;-88
2021/12/30 10:36:30;;;;;;;19.83;9.43;;;13.00;99.90;;;;;;5049882;28;20076;-90
2021/12/30 10:39:27;;;;;;;16.00;8.63;;;12.90;99.90;;;;;;5072618;28;20044;-90
2021/12/30 10:41:54;;;;;;;18.55;9.38;;;13.00;99.90;;;;;;5066673;28;20097;-90
2021/12/30 10:44:20;;;;;;;18.30;8.88;;;12.90;99.90;;;;;;5053018;28;20131;-92
2021/12/30 10:46:49;;;;;;;17.25;8.32;;;13.00;99.90;;;;;;5070732;28;20051;-92
2021/12/30 10:49:27;;;;;;;19.67;8.77;;;13.00;99.90;;;;;;5071834;28;20086;-92
2021/12/30 10:51:56;;;;;;;16.98;7.55;;;13.00;99.90;;;;;;5071230;28;20051;-91
2021/12/30 10:54:31;;;;;;;15.02;7.57;;;13.00;99.90;;;;;;5070777;28;20043;-95
2021/12/30 10:57:06;;;;;;;17.20;6.88;;;13.00;99.90;;;;;;5070454;28;20044;-92
2021/12/30 10:59:38;;;;;;;16.70;7.00;;;13.00;99.90;;;;;;5052628;28;20090;-90
2021/12/30 11:02:05;;;;;;;17.60;6.72;;;13.00;99.90;;;;;;5069579;28;20052;-89
2021/12/30 11:04:35;;;;;;;20.00;7.32;;;13.00;99.90;;;;;;5051623;28;20460;-91
2021/12/30 11:07:01;;;;;;;19.77;7.50;;;13.00;99.90;;;;;;5069015;28;20052;-91
2021/12/30 11:09:27;;;;;;;23.95;8.02;;;13.10;99.90;;;;;;5052469;28;20131;-93
2021/12/30 11:11:56;;;;;;;18.73;7.72;;;13.10;99.90;;;;;;5054486;28;20147;-95
2021/12/30 11:14:29;;;;;;;19.15;7.95;;;13.10;99.90;;;;;;5069421;28;20450;-90
2021/12/30 11:17:04;;;;;;;20.60;7.50;;;13.00;99.90;;;;;;5066793;28;20086;-93
2021/12/30 11:19:31;;;;;;;23.40;8.35;;;13.00;99.90;;;;;;5054204;28;20048;-93
2021/12/30 11:21:58;;;;;;;19.48;7.30;;;13.10;99.90;;;;;;5069692;28;20035;-90
2021/12/30 11:24:26;;;;;;;19.58;7.32;;;13.10;99.90;;;;;;5071184;28;20062;-89
2021/12/30 11:26:51;;;;;;;21.80;8.27;;;13.10;99.90;;;;;;5052781;28;20052;-93
2021/12/30 11:29:17;;;;;;;20.85;7.47;;;13.00;99.90;;;;;;5069360;28;20051;-93
2021/12/30 11:31:43;;;;;;;20.13;7.53;;;13.10;99.90;;;;;;5082532;28;20123;-90
2021/12/30 11:34:09;;;;;;;22.67;8.00;;;13.10;99.90;;;;;;5050264;28;20441;-92
2021/12/30 11:36:35;;;;;;;23.13;7.60;;;13.00;99.90;;;;;;5068446;28;20048;-91
2021/12/30 11:39:12;;;;;;;24.85;8.07;;;13.00;99.90;;;;;;5054394;28;20055;-93
2021/12/30 11:41:39;;;;;;;21.00;7.00;;;13.00;99.90;;;;;;5056487;28;20036;-90
2021/12/30 11:44:05;;;;;;;23.45;7.32;;;13.00;99.90;;;;;;5078792;28;20055;-94
2021/12/30 11:46:43;;;;;;;24.58;7.72;;;13.00;99.90;;;;;;5058004;28;20408;-93
2021/12/30 11:49:11;;;;;;;23.58;6.88;;;13.00;99.90;;;;;;5060128;28;20069;-95
2021/12/30 11:51:53;;;;;;;21.23;6.25;;;13.00;99.90;;;;;;5059489;28;20385;-90
2021/12/30 11:54:37;;;;;;;18.77;6.03;;;13.00;99.90;;;;;;5092646;28;20036;-96
2021/12/30 11:57:25;;;;;;;17.30;5.75;;;13.10;99.90;;;;;;5072699;28;20048;-94
2021/12/30 11:59:52;;;;;;;17.75;5.78;;;13.10;99.90;;;;;;5076845;28;20044;-95
2021/12/30 12:02:33;;;;;;;20.55;5.78;;;13.10;99.90;;;;;;5097858;28;20069;-91
2021/12/30 12:05:19;;;;;;;18.13;5.65;;;13.10;99.90;;;;;;5061270;28;20075;-93
2021/12/30 12:08:08;;;;;;;17.42;5.10;;;13.10;99.90;;;;;;5060682;28;20060;-92
2021/12/30 12:10:33;;;;;;;22.98;6.05;;;13.10;99.90;;;;;;5070435;28;20044;-92
2021/12/30 12:13:35;;;;;;;23.00;5.60;;;13.10;99.90;;;;;;5072718;28;20085;-95
2021/12/30 12:16:02;;;;;;;17.60;5.20;;;13.10;99.90;;;;;;5062452;28;20048;-90
2021/12/30 12:18:29;;;;;;;21.33;5.85;;;13.10;99.90;;;;;;5057038;28;20091;-94
2021/12/30 12:20:58;;;;;;;16.48;5.65;;;13.20;99.90;;;;;;5072920;28;20056;-89
2021/12/30 12:23:34;;;;;;;18.90;5.38;;;13.20;99.90;;;;;;5054675;28;20051;-91
2021/12/30 12:26:15;;;;;;;16.67;4.95;;;13.20;99.90;;;;;;5073396;28;20056;-91
2021/12/30 12:28:42;;;;;;;20.50;5.40;;;13.20;99.90;;;;;;5052239;28;20095;-92
2021/12/30 12:31:10;;;;;;;20.33;5.43;;;13.20;99.90;;;;;;5056123;28;20043;-93
2021/12/30 12:33:39;;;;;;;21.38;5.45;;;13.20;99.90;;;;;;5057933;28;20044;-94